Time;durP1;ratioP1;P1;durP2;ratioP2;P2;SDS_P1;SDS_P2;PMS_P1;PMS_P2;Temp;Humidity;BMP_temperature;BMP_pressure;BME280_temperature;BME280_humidity;BME280_pressure;Samples;Min_cycle;Max_cycle;Signal;HPM_P1;HPM_P2
2022/08/24 04:02:27;;;;;;;9.30;6.70;;;;;;;17.63;100.00;100340.16;6597104;26;20048;-87
2022/08/24 04:05:36;;;;;;;9.52;6.75;;;;;;;17.69;100.00;100341.13;6588647;27;35055;-89
2022/08/24 04:08:44;;;;;;;10.15;6.82;;;;;;;17.73;100.00;100339.66;6586969;26;34162;-89
2022/08/24 04:11:59;;;;;;;9.88;6.47;;;;;;;17.75;100.00;100339.41;6606699;26;34303;-88
2022/08/24 04:15:03;;;;;;;9.23;6.72;;;;;;;17.77;100.00;100338.13;6609954;26;34362;-88
2022/08/24 04:18:07;;;;;;;10.45;7.37;;;;;;;17.83;100.00;100334.53;6613405;26;33968;-88
2022/08/24 04:21:21;;;;;;;9.57;6.47;;;;;;;17.84;100.00;100328.03;6613917;26;34020;-88
2022/08/24 04:24:25;;;;;;;10.52;6.05;;;;;;;17.87;100.00;100327.59;6587514;26;32436;-89
2022/08/24 04:27:28;;;;;;;9.40;6.18;;;;;;;17.89;100.00;100327.34;6589724;26;32825;-88
2022/08/24 04:30:31;;;;;;;9.10;5.95;;;;;;;17.92;100.00;100336.97;6589051;26;34391;-89
2022/08/24 04:33:36;;;;;;;8.48;6.00;;;;;;;17.93;100.00;100328.56;6606556;26;33791;-88
2022/08/24 04:36:41;;;;;;;8.98;6.10;;;;;;;17.93;100.00;100344.91;6609693;26;35191;-88
2022/08/24 04:39:44;;;;;;;9.45;6.53;;;;;;;17.97;100.00;100348.00;6611504;26;34575;-88
2022/08/24 04:42:49;;;;;;;9.50;7.07;;;;;;;18.03;100.00;100339.75;6611613;26;34019;-88
2022/08/24 04:45:54;;;;;;;12.02;6.45;;;;;;;18.08;100.00;100342.63;6611640;26;34898;-88
2022/08/24 04:48:57;;;;;;;7.32;6.07;;;;;;;18.15;100.00;100339.00;6611550;26;34151;-88
2022/08/24 04:52:00;;;;;;;8.73;5.62;;;;;;;18.20;100.00;100336.41;6611568;26;34195;-88
2022/08/24 04:55:05;;;;;;;7.65;5.82;;;;;;;18.24;100.00;100324.00;6609939;26;33791;-89
2022/08/24 05:02:16;;;;;;;8.65;6.30;;;;;;;18.32;100.00;100326.41;6629467;26;20079;-88
2022/08/24 05:05:20;;;;;;;8.95;5.95;;;;;;;18.32;100.00;100332.69;6597011;26;33384;-90
2022/08/24 05:08:23;;;;;;;9.23;6.47;;;;;;;18.35;100.00;100331.41;6611458;27;34054;-88
2022/08/24 05:15:28;;;;;;;8.77;6.40;;;;;;;18.45;100.00;100331.66;6620511;26;20203;-88
2022/08/24 05:18:32;;;;;;;10.02;6.60;;;;;;;18.55;100.00;100336.56;6612285;26;32529;-88
2022/08/24 05:21:35;;;;;;;7.72;5.70;;;;;;;18.61;100.00;100332.09;6609440;26;34549;-89
2022/08/24 05:24:37;;;;;;;10.60;6.60;;;;;;;18.67;100.00;100340.16;6608967;26;34458;-89
2022/08/24 05:35:38;;;;;;;9.15;6.18;;;;;;;19.03;100.00;100322.03;6589570;26;33859;-88
2022/08/24 05:38:47;;;;;;;9.13;6.32;;;;;;;19.19;100.00;100331.44;6606831;26;34314;-88
2022/08/24 05:41:50;;;;;;;8.57;6.05;;;;;;;19.30;100.00;100338.78;6606718;26;34572;-89
2022/08/24 05:44:56;;;;;;;8.50;6.10;;;;;;;19.39;100.00;100344.72;6606297;26;33686;-89
2022/08/24 05:48:02;;;;;;;8.48;5.93;;;;;;;19.61;100.00;100347.69;6605706;26;35105;-88
2022/08/24 05:51:11;;;;;;;7.47;5.43;;;;;;;19.93;100.00;100332.59;6586694;26;32955;-88
2022/08/24 05:54:36;;;;;;;7.60;5.20;;;;;;;20.14;100.00;100331.13;6586621;26;33004;-88
2022/08/24 05:57:39;;;;;;;8.70;5.45;;;;;;;20.39;100.00;100321.78;6605807;26;33956;-88
2022/08/24 06:00:46;;;;;;;6.82;4.95;;;;;;;20.59;100.00;100327.66;6605126;26;34563;-88
2022/08/24 06:03:51;;;;;;;7.53;5.25;;;;;;;20.80;100.00;100336.25;6606609;26;33891;-88
2022/08/24 06:06:53;;;;;;;8.25;4.60;;;;;;;20.99;100.00;100328.63;6610737;26;33841;-88
2022/08/24 06:09:56;;;;;;;5.65;4.75;;;;;;;21.11;100.00;100334.00;6604600;26;34209;-88
2022/08/24 06:17:58;;;;;;;5.62;4.50;;;;;;;21.30;96.95;100321.75;6614408;26;20169;-88
2022/08/24 06:21:09;;;;;;;5.90;4.37;;;;;;;21.40;97.62;100315.63;6592609;27;32767;-88
2022/08/24 06:24:14;;;;;;;4.75;4.25;;;;;;;21.56;96.37;100328.47;6616127;27;33717;-88
2022/08/24 06:27:21;;;;;;;5.18;4.12;;;;;;;21.69;94.76;100330.00;6614143;26;34043;-88
2022/08/24 06:30:32;;;;;;;6.90;4.95;;;;;;;21.83;94.15;100335.97;6593399;26;34187;-88
2022/08/24 06:33:36;;;;;;;7.62;4.50;;;;;;;21.84;92.75;100337.62;6607345;26;34029;-89
2022/08/24 06:36:39;;;;;;;5.53;4.15;;;;;;;21.86;93.29;100335.47;6605185;26;34512;-88
2022/08/24 06:39:44;;;;;;;5.35;3.90;;;;;;;21.84;92.99;100341.19;6575369;26;32733;-89
2022/08/24 06:42:47;;;;;;;7.87;4.03;;;;;;;21.98;93.00;100338.91;6581360;27;34041;-88
2022/08/24 06:45:52;;;;;;;5.87;4.25;;;;;;;22.18;91.80;100339.19;6602889;26;34072;-88
2022/08/24 06:48:57;;;;;;;5.60;3.72;;;;;;;22.46;90.78;100348.28;6604103;26;34349;-88
2022/08/24 06:52:01;;;;;;;4.53;3.92;;;;;;;22.58;89.37;100348.13;6609596;26;33572;-88
2022/08/24 06:55:09;;;;;;;5.95;3.85;;;;;;;22.61;89.20;100348.47;6599771;26;34185;-88
2022/08/24 07:41:15;;;;;;;4.00;3.25;;;;;;;23.85;82.79;100378.66;6590674;26;20087;-88
2022/08/24 07:48:44;;;;;;;7.55;3.75;;;;;;;24.58;78.06;100384.22;6607710;26;20083;-87
2022/08/24 07:52:09;;;;;;;9.60;3.90;;;;;;;24.98;74.19;100379.94;6524255;27;20093;-87
2022/08/24 07:55:13;;;;;;;5.60;3.20;;;;;;;25.39;75.72;100393.75;6584076;27;34769;-86
2022/08/24 07:58:15;;;;;;;6.47;3.10;;;;;;;25.21;72.82;100397.03;6590378;27;35232;-86
2022/08/24 08:01:20;;;;;;;12.10;3.30;;;;;;;25.43;71.42;100394.03;6591182;27;33962;-87
2022/08/24 08:04:24;;;;;;;3.80;3.03;;;;;;;25.44;73.20;100398.41;6589343;27;33682;-87
2022/08/24 08:07:27;;;;;;;4.12;3.20;;;;;;;25.42;74.27;100395.09;6573875;27;35080;-86
2022/08/24 08:10:34;;;;;;;4.87;3.78;;;;;;;25.46;72.74;100398.97;6586792;27;33860;-86
2022/08/24 08:13:39;;;;;;;4.70;2.90;;;;;;;25.38;72.10;100394.00;6570125;27;33075;-87
2022/08/24 08:16:47;;;;;;;5.37;3.10;;;;;;;25.49;73.32;100393.72;6594403;26;35944;-86
2022/08/24 08:19:53;;;;;;;11.23;3.83;;;;;;;25.61;72.92;100398.97;6589976;27;33844;-86
2022/08/24 08:26:20;;;;;;;8.32;3.75;;;;;;;25.85;72.37;100401.97;6613694;26;34783;-87
2022/08/24 08:29:24;;;;;;;7.43;3.47;;;;;;;26.11;70.64;100399.16;6606888;26;34295;-87
2022/08/24 08:32:27;;;;;;;6.57;3.35;;;;;;;26.29;69.45;100390.25;6611621;26;34172;-87
2022/08/24 08:35:32;;;;;;;5.37;3.05;;;;;;;26.31;67.47;100401.03;6587108;27;33828;-87
2022/08/24 08:38:37;;;;;;;8.52;2.97;;;;;;;26.61;67.92;100398.16;6584460;27;32363;-86
2022/08/24 08:41:57;;;;;;;7.05;3.42;;;;;;;26.65;66.49;100398.44;6605169;27;33821;-87
2022/08/24 08:45:25;;;;;;;8.98;3.78;;;;;;;26.66;67.20;100397.31;6585293;27;32789;-86
2022/08/24 08:48:46;;;;;;;6.95;3.28;;;;;;;26.69;66.09;100405.03;6585112;27;32941;-86
2022/08/24 08:52:23;;;;;;;5.43;2.72;;;;;;;26.82;66.27;100401.62;6584983;27;32708;-86
2022/08/24 08:55:35;;;;;;;6.10;2.92;;;;;;;26.81;64.10;100404.69;6585061;27;33831;-87
2022/08/24 08:59:00;;;;;;;7.65;3.12;;;;;;;27.17;63.70;100396.16;6585545;27;33953;-86
2022/08/24 09:02:13;;;;;;;3.28;2.28;;;;;;;27.69;61.73;100400.16;6584985;27;32901;-86
2022/08/24 09:05:38;;;;;;;3.17;2.47;;;;;;;28.10;57.71;100391.44;6607758;27;34089;-86
2022/08/24 09:08:56;;;;;;;5.03;2.40;;;;;;;28.13;57.43;100399.97;6585119;27;32839;-87
2022/08/24 09:12:14;;;;;;;3.75;2.50;;;;;;;28.40;56.56;100402.16;6585259;27;33649;-86
2022/08/24 09:15:35;;;;;;;;;;;;;;;28.51;55.48;100404.81;6584055;27;32597;-86
2022/08/24 09:18:44;;;;;;;6.70;2.75;;;;;;;28.45;55.14;100410.41;6605701;27;34296;-87
2022/08/24 09:22:14;;;;;;;3.65;2.60;;;;;;;28.10;55.61;100400.56;6606516;26;34025;-87
2022/08/24 09:25:27;;;;;;;5.53;2.72;;;;;;;27.88;56.64;100401.09;6607023;27;34539;-87
2022/08/24 09:28:52;;;;;;;6.87;3.00;;;;;;;28.21;57.32;100392.97;6598453;26;32828;-87
2022/08/24 09:36:10;;;;;;;8.43;3.15;;;;;;;28.75;56.07;100391.72;6655487;26;20055;-87
2022/08/24 09:39:54;;;;;;;8.07;2.80;;;;;;;28.66;53.75;100396.28;6641104;26;35267;-91
2022/08/24 09:43:27;;;;;;;12.80;3.08;;;;;;;28.35;54.36;100380.06;6628271;26;34565;-88
2022/08/24 09:46:42;;;;;;;6.50;2.97;;;;;;;28.50;54.32;100384.59;6584274;26;33773;-88
2022/08/24 09:49:59;;;;;;;7.70;3.22;;;;;;;28.44;54.84;100381.06;6607672;27;34091;-88
2022/08/24 09:53:14;;;;;;;3.33;2.65;;;;;;;28.31;54.09;100369.88;6609410;26;33765;-88
2022/08/24 09:56:35;;;;;;;6.30;2.80;;;;;;;28.03;55.46;100372.44;6620952;26;34483;-88
2022/08/24 10:00:10;;;;;;;4.47;2.72;;;;;;;28.08;55.34;100371.53;6604998;27;33921;-88
2022/08/24 10:03:23;;;;;;;5.72;2.70;;;;;;;27.97;56.72;100368.06;6607894;27;34529;-88
2022/08/24 10:06:56;;;;;;;5.37;3.22;;;;;;;27.52;57.08;100373.72;6606928;26;34790;-88
2022/08/24 10:10:12;;;;;;;3.87;3.05;;;;;;;27.16;58.81;100378.75;6579254;27;34798;-88
2022/08/24 10:13:27;;;;;;;6.47;3.28;;;;;;;26.94;59.19;100381.09;6580556;27;33662;-88
2022/08/24 10:16:51;;;;;;;4.72;3.67;;;;;;;26.82;60.52;100376.78;6561318;27;33568;-87
2022/08/24 10:19:54;;;;;;;6.37;3.55;;;;;;;26.86;61.55;100377.84;6567359;27;33135;-88
2022/08/24 10:23:06;;;;;;;10.52;4.37;;;;;;;27.27;61.58;100372.03;6595626;27;35374;-87
2022/08/24 10:26:36;;;;;;;7.55;4.05;;;;;;;27.63;61.08;100371.69;6559387;27;34774;-87
2022/08/24 10:29:38;;;;;;;8.02;4.18;;;;;;;27.56;60.29;100379.53;6540893;27;32369;-88
2022/08/24 10:32:51;;;;;;;5.00;4.18;;;;;;;27.28;61.43;100376.44;6560408;27;32762;-87
2022/08/24 10:36:02;;;;;;;9.68;4.78;;;;;;;27.10;62.02;100375.19;6579880;27;33744;-86
2022/08/24 10:39:42;;;;;;;11.95;4.53;;;;;;;27.40;61.99;100383.53;6579283;27;34698;-87
2022/08/24 10:46:38;;;;;;;9.65;5.03;;;;;;;27.70;61.24;100380.50;6560514;27;32588;-87
2022/08/24 10:49:58;;;;;;;10.82;4.32;;;;;;;28.09;58.21;100374.00;6581358;27;34476;-87
2022/08/24 10:53:29;;;;;;;10.63;5.30;;;;;;;28.12;58.13;100375.38;6578751;27;33948;-87
2022/08/24 10:56:51;;;;;;;9.68;5.22;;;;;;;28.27;57.63;100378.75;6533916;27;32460;-87
2022/08/24 11:00:15;;;;;;;8.40;4.90;;;;;;;29.10;56.84;100379.28;6553032;27;35405;-87
2022/08/24 11:03:25;;;;;;;13.13;4.80;;;;;;;29.91;55.09;100375.44;6534054;27;34250;-88
2022/08/24 11:06:35;;;;;;;11.18;5.20;;;;;;;29.32;55.24;100373.13;6533065;27;33165;-87
2022/08/24 11:09:58;;;;;;;6.23;4.70;;;;;;;29.15;55.08;100372.84;6553873;27;33957;-87
2022/08/24 11:13:13;;;;;;;8.77;4.62;;;;;;;28.88;57.45;100382.66;6553746;27;34044;-88
2022/08/24 11:16:24;;;;;;;7.53;4.95;;;;;;;28.52;57.19;100385.13;6553077;27;34162;-88
2022/08/24 11:19:34;;;;;;;11.55;5.72;;;;;;;28.22;58.73;100378.81;6553093;27;34421;-89
2022/08/24 11:22:55;;;;;;;8.88;4.82;;;;;;;27.57;60.66;100389.47;6534376;27;32824;-89
2022/08/24 11:26:03;;;;;;;12.98;5.12;;;;;;;27.51;62.19;100393.41;6583273;26;33480;-89
2022/08/24 11:29:06;;;;;;;11.05;4.82;;;;;;;27.40;65.36;100397.38;6604855;26;33983;-90
2022/08/24 11:32:27;;;;;;;10.13;5.45;;;;;;;27.06;67.16;100409.22;6584219;26;33088;-89
2022/08/24 11:35:30;;;;;;;11.23;5.03;;;;;;;26.90;68.26;100400.19;6588181;27;32785;-89
2022/08/24 11:42:46;;;;;;;8.68;4.57;;;;;;;26.58;71.92;100411.69;6637060;26;20028;-89
2022/08/24 11:50:29;;;;;;;13.90;4.60;;;;;;;26.37;74.58;100414.53;6615672;26;20087;-89
2022/08/24 12:01:50;;;;;;;6.15;3.90;;;;;;;27.87;67.74;100420.75;6580257;27;34793;-89
2022/08/24 12:05:42;;;;;;;8.23;4.68;;;;;;;28.19;66.23;100415.41;6557197;27;33596;-90
2022/08/24 13:33:16;;;;;;;6.47;3.10;;;;;;;25.49;76.61;100399.25;6587611;26;33795;-89
2022/08/24 13:36:43;;;;;;;6.57;3.60;;;;;;;25.15;79.25;100412.72;6575859;27;33798;-89
2022/08/24 13:40:19;;;;;;;4.07;3.15;;;;;;;25.08;83.62;100415.72;6575874;27;33781;-89
2022/08/24 13:44:11;;;;;;;5.22;3.65;;;;;;;24.92;83.93;100414.03;6576735;27;33652;-89
2022/08/24 13:47:20;;;;;;;6.05;3.55;;;;;;;24.95;90.65;100418.19;6576068;27;34282;-89
2022/08/24 13:50:49;;;;;;;5.75;4.05;;;;;;;25.13;91.01;100423.19;6581056;27;34310;-89
